Autres sites météorologiques:

MétéotemplateWebsite of another weatherstation

Saratoga.org


Vous trouverez notre info météo également à:

European Weather Network

WeatherCloud

Weather Underground

French Weather Network

AWEKAS

HAMweather, WeatherForYou, PWS Weather



Pas de vigilance météorologique particulière.    Il n'y a aucun avertissement

Rapports METAR proches


Warning: A non-numeric value encountered in /home/jacot04/public_html/weather28/metar/metarDisplay.php on line 166
   
EHVK - Volkel Rnlafb, Netherlands
Distance de la station :: SO 18 km
Mise à jour: 28-10-2020 10:25
Non actualisé
Nuageux  
Nuageux  
   Vent: SSO 31.5 km/h
Vent: SSO 31.5 km/h
Température: 12°C
Point de rosée: 9°C
Hygromètrie: 82%
Pression: 1006 hPa
Nuageux: Nuageux
visibilité: More than 10 km
Détails des nuages: Peu nuageux 1600 ft,
Partiellement nuageux 1900 ft,
Nuageux 2400 ft
EHVK 280925Z AUTO 21017KT 180V250 9999 FEW016 SCT019 BKN024 12/09 Q1006 WHT NOSIG
EDLV - Niederrhein, Germany
Distance de la station :: SE 25 km
Mise à jour: 28-10-2020 10:20
Non actualisé
Clair  
Clair  
   Vent: SSO 18.5 km/h
Vent: SSO 18.5 km/h
Température: 13°C
Point de rosée: 9°C
Hygromètrie: 77%
Pression: 1007 hPa
visibilité: More than 10 km
Détails des nuages: Clair
EDLV 280920Z 20010KT 160V230 CAVOK 13/09 Q1007
EHDL - Deelen Rnlafb, Netherlands
Distance de la station :: N 35 km
Mise à jour: 28-10-2020 10:25
Non actualisé
Couvert  
Couvert  
   Vent: SSO 20.4 km/h
Vent: SSO 20.4 km/h
Température: 11°C
Point de rosée: 10°C
Hygromètrie: 94%
Pression: 1005 hPa
Nuageux: Couvert
visibilité: More than 10 km
Détails des nuages: Peu nuageux 1300 ft,
Partiellement nuageux 1500 ft,
Couvert 10000 ft
EHDL 280925Z AUTO 20011KT 150V260 9999 FEW013 SCT015 OVC100 11/10 Q1005 WHT
EHEH - Eindhoven Rnlafb, Netherlands
Distance de la station :: SO 48 km
Mise à jour: 28-10-2020 10:33
Non actualisé
Nuageux  
Nuageux  
   Vent: SSO 25.9 km/h
Vent: SSO 25.9 km/h
Température: 13°C
Point de rosée: 9°C
Hygromètrie: 77%
Pression: 1006 hPa
Nuageux: Nuageux
visibilité: More than 10 km
Détails des nuages: Partiellement nuageux 2000 ft,
Nuageux 2300 ft,
Nuageux 2700 ft
EHEH 280933Z AUTO 21014KT 190V250 9999 SCT020 BKN023 BKN027 13/09 Q1006 WHT NOSIG
EHGR - Gilze-Rijen Rnla, Netherlands
Distance de la station :: OSO 70 km
Mise à jour: 28-10-2020 10:32
Non actualisé
Partiellement nuageux  
Partiellement nuageux  
   Vent: SSO 22.2 km/h
Vent: SSO 22.2 km/h
Température: 12°C
Point de rosée: 9°C
Hygromètrie: 82%
Pression: 1006 hPa
Nuageux: Partiellement nuageux
visibilité: More than 10 km
Détails des nuages: Peu nuageux 1600 ft,
Partiellement nuageux 6200 ft
EHGR 280932Z AUTO 21012KT 180V250 9999 FEW016 SCT062 12/09 Q1006 BLU TEMPO FEW017 SCT020CB SCT045
EBBL - Kleine-Brogel(Ba, Belgium
Distance de la station :: SSO 71 km
Mise à jour: 28-10-2020 10:25
Non actualisé
Partiellement nuageux  
Partiellement nuageux  
   Vent: SO 25.9 km/h
Vent: SO 25.9 km/h
Température: 13°C
Point de rosée: 9°C
Hygromètrie: 77%
Pression: 1007 hPa
Nuageux: Partiellement nuageux
visibilité: More than 10 km
Détails des nuages: Peu nuageux 2000 ft,
Partiellement nuageux 10000 ft
EBBL 280925Z 22014KT 9999 FEW020 SCT100 13/09 Q1007 BLU BLU BECMG WHT

Script d'après  Saratoga-weather.org Adapté pour le modèle par  Weerstation Leuven